Time;durP1;ratioP1;P1;durP2;ratioP2;P2;SDS_P1;SDS_P2;PMS_P1;PMS_P2;Temp;Humidity;BMP_temperature;BMP_pressure;BME280_temperature;BME280_humidity;BME280_pressure;Samples;Min_cycle;Max_cycle;Signal;HPM_P1;HPM_P2
2021/04/30 01:39:07;;;;;;;14.40;4.20;;;;;;;;;;12949256;22;1038461;-79
2021/04/30 01:44:09;;;;;;;16.70;4.23;;;;;;;;;;12986979;22;20538;-78
2021/04/30 01:49:11;;;;;;;18.03;4.30;;;;;;;;;;12982505;22;20258;-77
2021/04/30 01:54:14;;;;;;;9.93;3.97;;;;;;;;;;12989707;22;20709;-77
2021/04/30 01:59:16;;;;;;;14.57;4.37;;;;;;;;;;12982606;22;20177;-79
2021/04/30 02:04:18;;;;;;;17.90;4.50;;;;;;;;;;12983185;22;20216;-78
2021/04/30 02:09:21;;;;;;;17.30;4.50;;;;;;;;;;12987243;22;20674;-78
2021/04/30 02:14:23;;;;;;;12.13;4.13;;;;;;;;;;12981990;22;20232;-80
2021/04/30 02:19:25;;;;;;;15.67;4.30;;;;;;;;;;12985986;22;20206;-79
2021/04/30 02:24:28;;;;;;;13.00;4.50;;;;;;;;;;12986807;22;20197;-78
2021/04/30 02:29:31;;;;;;;15.03;4.27;;;;;;;;;;12982131;22;20170;-80
2021/04/30 02:34:34;;;;;;;13.77;4.73;;;;;;;;;;12984666;22;20236;-78
2021/04/30 02:39:37;;;;;;;17.70;4.30;;;;;;;;;;12985912;22;20188;-79
2021/04/30 02:44:39;;;;;;;14.07;4.20;;;;;;;;;;12978954;22;20589;-78
2021/04/30 02:49:44;;;;;;;15.40;4.80;;;;;;;;;;12986488;22;20174;-78
2021/04/30 02:54:47;;;;;;;11.10;4.00;;;;;;;;;;13007617;22;20301;-78
2021/04/30 02:59:49;;;;;;;16.73;4.90;;;;;;;;;;12983245;22;20531;-78
2021/04/30 03:04:51;;;;;;;14.33;4.70;;;;;;;;;;12985382;22;20549;-78
2021/04/30 03:09:54;;;;;;;17.43;6.17;;;;;;;;;;12985199;22;20519;-78
2021/04/30 03:14:56;;;;;;;18.97;6.80;;;;;;;;;;12980610;22;20194;-78
2021/04/30 03:19:58;;;;;;;14.07;5.13;;;;;;;;;;12987472;22;20532;-79
2021/04/30 03:25:01;;;;;;;10.63;4.70;;;;;;;;;;12982651;22;20366;-79
2021/04/30 03:30:04;;;;;;;14.40;5.17;;;;;;;;;;12980895;22;20426;-79
2021/04/30 03:35:06;;;;;;;13.73;4.90;;;;;;;;;;12984346;22;20181;-78
2021/04/30 03:40:10;;;;;;;17.80;5.03;;;;;;;;;;12985158;22;20642;-78
2021/04/30 03:45:13;;;;;;;16.30;5.07;;;;;;;;;;12998762;22;20209;-79
2021/04/30 03:50:15;;;;;;;16.83;4.83;;;;;;;;;;12989009;22;20178;-79
2021/04/30 03:55:18;;;;;;;16.13;4.87;;;;;;;;;;12984034;22;20503;-78
2021/04/30 04:00:20;;;;;;;15.80;4.53;;;;;;;;;;12981750;22;20520;-78
2021/04/30 04:05:22;;;;;;;20.80;5.87;;;;;;;;;;12984761;22;20288;-78
2021/04/30 04:10:25;;;;;;;13.43;5.70;;;;;;;;;;12984503;22;20674;-78
2021/04/30 04:15:27;;;;;;;18.97;6.57;;;;;;;;;;12979146;22;20193;-79
2021/04/30 04:20:28;;;;;;;17.63;6.60;;;;;;;;;;12982216;22;20178;-76
2021/04/30 04:25:31;;;;;;;20.37;6.60;;;;;;;;;;12999129;22;21125;-77
2021/04/30 04:30:33;;;;;;;21.70;7.30;;;;;;;;;;12997615;22;20176;-77
2021/04/30 04:35:35;;;;;;;17.63;7.50;;;;;;;;;;12980250;22;20185;-78
2021/04/30 04:40:38;;;;;;;19.77;7.43;;;;;;;;;;12983886;22;20177;-78
2021/04/30 04:45:40;;;;;;;21.53;8.07;;;;;;;;;;12978828;22;20767;-81
2021/04/30 04:50:43;;;;;;;21.20;8.23;;;;;;;;;;12988687;22;20176;-86
2021/04/30 04:55:58;;;;;;;23.60;7.67;;;;;;;;;;13011126;22;20176;-80
2021/04/30 05:01:00;;;;;;;22.93;8.70;;;;;;;;;;13011229;22;20673;-82
2021/04/30 05:06:02;;;;;;;18.10;7.67;;;;;;;;;;12989533;22;20209;-82
2021/04/30 05:11:05;;;;;;;21.30;8.97;;;;;;;;;;12992087;22;20173;-80
2021/04/30 05:16:07;;;;;;;23.13;8.60;;;;;;;;;;12985233;22;20200;-79
2021/04/30 05:21:10;;;;;;;20.50;9.00;;;;;;;;;;12990721;22;20523;-77
2021/04/30 05:26:13;;;;;;;20.83;9.60;;;;;;;;;;12990528;22;20522;-77
2021/04/30 05:31:15;;;;;;;22.17;9.57;;;;;;;;;;12988142;22;20177;-75
2021/04/30 05:36:18;;;;;;;17.90;8.93;;;;;;;;;;12994186;22;20178;-76
2021/04/30 05:41:20;;;;;;;19.37;9.30;;;;;;;;;;13013610;22;20162;-76
2021/04/30 05:46:22;;;;;;;19.97;9.50;;;;;;;;;;12989354;22;20216;-77
2021/04/30 05:51:24;;;;;;;19.73;9.40;;;;;;;;;;12999500;22;20240;-77
2021/04/30 05:56:27;;;;;;;24.47;10.10;;;;;;;;;;12995507;22;20505;-75
2021/04/30 06:01:29;;;;;;;19.00;9.63;;;;;;;;;;12987206;22;20185;-76
2021/04/30 06:06:31;;;;;;;18.40;9.23;;;;;;;;;;12991628;22;20201;-76
2021/04/30 06:11:33;;;;;;;18.10;9.50;;;;;;;;;;12990688;22;20188;-76
2021/04/30 06:16:35;;;;;;;23.37;10.13;;;;;;;;;;12988422;22;20761;-76
2021/04/30 06:21:37;;;;;;;22.87;9.30;;;;;;;;;;12989817;22;20651;-76
2021/04/30 06:26:40;;;;;;;20.70;9.73;;;;;;;;;;12989402;22;20201;-76
2021/04/30 06:31:42;;;;;;;22.50;10.00;;;;;;;;;;12987182;22;20173;-78
2021/04/30 06:36:44;;;;;;;21.33;9.17;;;;;;;;;;12987328;22;20612;-76
2021/04/30 06:41:47;;;;;;;20.80;9.50;;;;;;;;;;12923734;22;20167;-76
2021/04/30 06:46:49;;;;;;;21.90;9.47;;;;;;;;;;12922573;22;20206;-76
2021/04/30 06:51:51;;;;;;;18.67;9.30;;;;;;;;;;12928025;22;20374;-78
2021/04/30 06:56:54;;;;;;;16.80;9.37;;;;;;;;;;12925734;22;20170;-76
2021/04/30 07:01:56;;;;;;;14.83;8.13;;;;;;;;;;12919834;22;20178;-76
2021/04/30 07:06:58;;;;;;;11.67;7.83;;;;;;;;;;12926823;22;20206;-76
2021/04/30 07:12:00;;;;;;;13.77;8.00;;;;;;;;;;12925635;22;20190;-76
2021/04/30 07:17:03;;;;;;;11.63;8.00;;;;;;;;;;12921328;22;20198;-76
2021/04/30 07:22:09;;;;;;;13.50;8.30;;;;;;;;;;12931246;22;20690;-77
2021/04/30 07:27:17;;;;;;;15.57;9.50;;;;;;;;;;12947330;22;20202;-77
2021/04/30 07:32:19;;;;;;;13.27;8.17;;;;;;;;;;12925008;22;20166;-77
2021/04/30 07:37:21;;;;;;;16.17;9.27;;;;;;;;;;12922085;22;20202;-76
2021/04/30 07:42:24;;;;;;;15.63;9.73;;;;;;;;;;12925051;22;20356;-76
2021/04/30 07:47:26;;;;;;;12.60;8.73;;;;;;;;;;12919966;22;20206;-77
2021/04/30 07:52:28;;;;;;;16.40;9.73;;;;;;;;;;12927122;22;20178;-76
2021/04/30 07:57:33;;;;;;;19.30;10.80;;;;;;;;;;12923193;22;20507;-76
2021/04/30 08:02:35;;;;;;;18.50;10.77;;;;;;;;;;12922311;22;20166;-75
2021/04/30 08:07:38;;;;;;;18.67;10.73;;;;;;;;;;12926329;22;20212;-76
2021/04/30 08:12:41;;;;;;;19.20;11.43;;;;;;;;;;12924127;22;21044;-76
2021/04/30 08:17:43;;;;;;;15.17;9.90;;;;;;;;;;12918310;22;20220;-76
2021/04/30 08:22:45;;;;;;;11.70;8.97;;;;;;;;;;12924518;22;20648;-77
2021/04/30 08:27:48;;;;;;;14.23;9.23;;;;;;;;;;12920516;22;20203;-75
2021/04/30 08:32:50;;;;;;;14.03;9.33;;;;;;;;;;12921874;22;20180;-76
2021/04/30 08:37:51;;;;;;;12.13;8.07;;;;;;;;;;12921070;22;20190;-76
2021/04/30 08:42:55;;;;;;;9.20;6.63;;;;;;;;;;12922730;22;20212;-76
2021/04/30 08:47:57;;;;;;;9.07;6.70;;;;;;;;;;12921446;22;20206;-76
2021/04/30 08:52:59;;;;;;;11.20;7.43;;;;;;;;;;12921049;22;20502;-76
2021/04/30 08:58:03;;;;;;;11.40;7.00;;;;;;;;;;12924263;22;20254;-76
2021/04/30 09:03:08;;;;;;;10.83;6.97;;;;;;;;;;12917633;22;20660;-76
2021/04/30 09:08:10;;;;;;;10.23;6.87;;;;;;;;;;12924032;22;20229;-76
2021/04/30 09:13:14;;;;;;;8.97;6.37;;;;;;;;;;12920875;22;20181;-77
2021/04/30 09:18:20;;;;;;;7.60;6.17;;;;;;;;;;12920698;22;20199;-76
2021/04/30 09:23:29;;;;;;;11.27;6.80;;;;;;;;;;12922959;22;20167;-76
2021/04/30 09:28:32;;;;;;;10.87;7.47;;;;;;;;;;12926183;22;20210;-76
2021/04/30 09:33:34;;;;;;;11.30;7.80;;;;;;;;;;12922400;22;20616;-76
2021/04/30 09:38:36;;;;;;;12.73;8.70;;;;;;;;;;12928079;22;20195;-76
2021/04/30 09:43:47;;;;;;;12.80;8.23;;;;;;;;;;12923906;22;20185;-76
2021/04/30 09:48:55;;;;;;;12.50;8.17;;;;;;;;;;12924515;22;20224;-77
2021/04/30 09:54:14;;;;;;;16.33;9.00;;;;;;;;;;12927910;22;20209;-77
2021/04/30 09:59:23;;;;;;;13.70;9.17;;;;;;;;;;12947392;22;20566;-77
2021/04/30 10:04:26;;;;;;;15.87;9.67;;;;;;;;;;12923775;22;20174;-77
2021/04/30 10:09:28;;;;;;;13.67;9.43;;;;;;;;;;12924034;22;20272;-77
2021/04/30 10:14:32;;;;;;;17.23;9.77;;;;;;;;;;12921127;22;20820;-77
2021/04/30 10:19:34;;;;;;;14.67;9.50;;;;;;;;;;12929136;22;20187;-77
2021/04/30 10:24:37;;;;;;;14.23;9.13;;;;;;;;;;12925823;22;20630;-76
2021/04/30 10:29:41;;;;;;;13.87;9.63;;;;;;;;;;12922618;22;20662;-77
2021/04/30 10:34:46;;;;;;;14.50;9.53;;;;;;;;;;12931224;22;20234;-77
2021/04/30 10:39:54;;;;;;;13.17;9.50;;;;;;;;;;12925608;22;20539;-78
2021/04/30 10:45:01;;;;;;;19.30;12.73;;;;;;;;;;12951890;22;20181;-78
2021/04/30 10:50:15;;;;;;;16.17;10.00;;;;;;;;;;12928358;22;20171;-77
2021/04/30 10:55:19;;;;;;;16.23;10.60;;;;;;;;;;12951352;22;20174;-78
2021/04/30 11:00:26;;;;;;;19.03;11.33;;;;;;;;;;12920479;22;20417;-76
2021/04/30 11:05:28;;;;;;;15.53;10.43;;;;;;;;;;12926746;22;20197;-76
2021/04/30 11:10:39;;;;;;;16.93;11.50;;;;;;;;;;12924701;22;20487;-76
2021/04/30 11:15:54;;;;;;;18.60;12.10;;;;;;;;;;12924195;22;20252;-76
2021/04/30 11:20:57;;;;;;;20.23;11.40;;;;;;;;;;12944852;22;20502;-78
2021/04/30 11:26:07;;;;;;;18.80;11.77;;;;;;;;;;12922826;22;20536;-75
2021/04/30 11:31:11;;;;;;;22.33;12.90;;;;;;;;;;12919389;22;20601;-76
2021/04/30 11:36:14;;;;;;;19.27;12.10;;;;;;;;;;12927550;22;20546;-75
2021/04/30 11:41:34;;;;;;;20.10;12.67;;;;;;;;;;12924127;22;20178;-76
2021/04/30 11:46:38;;;;;;;18.23;12.10;;;;;;;;;;12943185;22;20212;-77
2021/04/30 11:51:44;;;;;;;18.27;12.47;;;;;;;;;;12926639;22;20265;-76
2021/04/30 11:56:55;;;;;;;16.37;11.53;;;;;;;;;;12946853;22;20178;-78
2021/04/30 12:02:00;;;;;;;18.17;11.73;;;;;;;;;;12920411;22;20167;-77
2021/04/30 12:07:02;;;;;;;20.30;12.63;;;;;;;;;;12923933;22;20654;-76
2021/04/30 12:12:22;;;;;;;20.23;12.13;;;;;;;;;;12921985;22;20997;-77
2021/04/30 12:17:36;;;;;;;18.83;12.80;;;;;;;;;;12921113;22;20515;-76
2021/04/30 12:22:53;;;;;;;17.90;11.73;;;;;;;;;;12923218;22;20958;-76
2021/04/30 12:28:11;;;;;;;19.73;12.10;;;;;;;;;;12923970;22;20603;-77
2021/04/30 12:33:28;;;;;;;17.47;11.60;;;;;;;;;;12940970;22;20178;-78
2021/04/30 12:38:31;;;;;;;18.80;12.13;;;;;;;;;;12927839;22;20186;-76
2021/04/30 12:43:35;;;;;;;17.43;12.53;;;;;;;;;;12943182;22;20179;-77
2021/04/30 12:48:41;;;;;;;16.90;11.53;;;;;;;;;;12921696;22;20206;-78
2021/04/30 12:53:43;;;;;;;15.27;11.37;;;;;;;;;;12945996;22;20174;-77
2021/04/30 12:59:02;;;;;;;16.57;11.80;;;;;;;;;;12944965;22;20174;-77
2021/04/30 13:04:05;;;;;;;19.43;11.57;;;;;;;;;;12921608;22;20177;-77
2021/04/30 13:09:08;;;;;;;18.27;11.43;;;;;;;;;;12951170;22;20202;-76
2021/04/30 13:14:11;;;;;;;16.77;11.50;;;;;;;;;;12925794;22;20175;-77
2021/04/30 13:19:15;;;;;;;14.73;10.93;;;;;;;;;;12923496;22;20175;-77
2021/04/30 13:24:18;;;;;;;15.87;11.47;;;;;;;;;;12927062;22;20174;-76
2021/04/30 13:29:20;;;;;;;19.43;11.63;;;;;;;;;;12923436;22;20206;-77
2021/04/30 13:34:33;;;;;;;15.90;10.97;;;;;;;;;;12922281;22;20514;-76
2021/04/30 13:39:35;;;;;;;12.93;9.77;;;;;;;;;;12926236;22;20460;-77
2021/04/30 13:44:39;;;;;;;11.90;9.17;;;;;;;;;;12921124;22;20277;-76
2021/04/30 13:49:48;;;;;;;12.67;8.90;;;;;;;;;;12949261;22;20217;-78
2021/04/30 13:54:50;;;;;;;11.97;8.97;;;;;;;;;;12925204;22;20523;-77
2021/04/30 13:59:53;;;;;;;11.53;9.07;;;;;;;;;;12923919;22;20179;-78
2021/04/30 14:04:56;;;;;;;11.83;9.30;;;;;;;;;;12950844;22;20181;-77
2021/04/30 14:09:58;;;;;;;13.10;9.70;;;;;;;;;;12926981;22;20560;-77
2021/04/30 14:15:00;;;;;;;11.73;8.97;;;;;;;;;;12940006;22;20194;-78
2021/04/30 14:20:03;;;;;;;12.03;9.10;;;;;;;;;;12947837;22;20170;-77
2021/04/30 14:25:05;;;;;;;12.83;9.63;;;;;;;;;;12924492;22;20512;-77
2021/04/30 14:30:08;;;;;;;13.53;9.40;;;;;;;;;;12922182;22;20213;-82
2021/04/30 14:35:12;;;;;;;11.67;9.33;;;;;;;;;;12948347;22;20562;-77
2021/04/30 14:40:14;;;;;;;11.57;9.07;;;;;;;;;;12930566;22;20187;-78
2021/04/30 14:45:16;;;;;;;13.30;8.60;;;;;;;;;;12912363;22;20175;-77
2021/04/30 14:50:19;;;;;;;14.10;8.30;;;;;;;;;;12941238;22;20554;-81
2021/04/30 14:55:21;;;;;;;11.70;8.10;;;;;;;;;;12921041;22;20182;-77
2021/04/30 15:00:23;;;;;;;11.83;8.47;;;;;;;;;;12939990;22;20185;-76
2021/04/30 15:05:25;;;;;;;11.53;7.47;;;;;;;;;;12922806;22;20181;-76
2021/04/30 15:10:28;;;;;;;12.53;8.63;;;;;;;;;;12908430;22;20612;-76
2021/04/30 15:15:30;;;;;;;10.27;7.50;;;;;;;;;;12913428;22;20198;-75
2021/04/30 15:20:34;;;;;;;14.63;8.90;;;;;;;;;;12939131;22;20175;-77
2021/04/30 15:25:36;;;;;;;11.50;7.87;;;;;;;;;;12928942;22;20198;-80
2021/04/30 15:30:39;;;;;;;16.20;8.17;;;;;;;;;;12922261;22;20238;-79
2021/04/30 15:35:41;;;;;;;13.67;7.37;;;;;;;;;;12925648;22;20186;-78
2021/04/30 15:40:44;;;;;;;12.70;7.63;;;;;;;;;;12916122;22;20193;-77
2021/04/30 15:45:50;;;;;;;13.63;7.97;;;;;;;;;;12909221;22;20798;-74
2021/04/30 15:50:53;;;;;;;14.67;8.40;;;;;;;;;;12938425;22;20572;-75
2021/04/30 15:55:55;;;;;;;9.77;6.70;;;;;;;;;;12912922;22;20178;-74
2021/04/30 16:00:57;;;;;;;10.27;6.63;;;;;;;;;;12912411;22;20185;-74
2021/04/30 16:06:00;;;;;;;12.10;7.03;;;;;;;;;;12918955;22;20385;-74
2021/04/30 16:11:02;;;;;;;12.37;6.43;;;;;;;;;;12916987;22;21147;-74
2021/04/30 16:16:04;;;;;;;12.53;6.47;;;;;;;;;;12919866;22;20200;-73
2021/04/30 16:21:07;;;;;;;10.50;6.10;;;;;;;;;;12921115;22;20245;-74
2021/04/30 16:26:09;;;;;;;13.83;6.10;;;;;;;;;;12919539;22;20208;-74
2021/04/30 16:31:12;;;;;;;13.67;6.60;;;;;;;;;;12915931;22;20174;-74
2021/04/30 16:36:15;;;;;;;12.77;6.00;;;;;;;;;;12921277;22;20643;-75
2021/04/30 16:41:17;;;;;;;10.30;5.90;;;;;;;;;;12922509;22;20182;-74
2021/04/30 16:46:21;;;;;;;10.53;5.63;;;;;;;;;;12921215;22;20206;-74
2021/04/30 16:51:27;;;;;;;13.30;5.80;;;;;;;;;;12923636;22;20562;-75
2021/04/30 16:56:29;;;;;;;15.03;6.00;;;;;;;;;;12944915;22;20171;-73
2021/04/30 17:01:31;;;;;;;14.33;5.90;;;;;;;;;;12914743;22;20175;-73
2021/04/30 17:06:34;;;;;;;12.47;5.90;;;;;;;;;;12925832;22;20713;-75
2021/04/30 17:11:36;;;;;;;11.37;5.63;;;;;;;;;;12942774;22;20360;-73
2021/04/30 17:16:38;;;;;;;12.17;5.83;;;;;;;;;;12930091;22;20290;-73
2021/04/30 17:21:43;;;;;;;14.07;6.37;;;;;;;;;;12921576;22;20252;-74
2021/04/30 17:26:45;;;;;;;13.30;6.43;;;;;;;;;;12953609;22;20190;-74
2021/04/30 17:31:47;;;;;;;14.73;6.10;;;;;;;;;;12929634;22;20679;-73
2021/04/30 17:36:50;;;;;;;13.33;6.60;;;;;;;;;;12923682;22;20186;-74
2021/04/30 17:41:52;;;;;;;14.07;6.37;;;;;;;;;;12919335;22;20225;-74
2021/04/30 17:46:54;;;;;;;10.17;6.17;;;;;;;;;;12916717;22;20202;-74
2021/04/30 17:51:56;;;;;;;17.57;6.80;;;;;;;;;;12920886;22;20174;-74
2021/04/30 17:56:58;;;;;;;13.53;5.80;;;;;;;;;;12918119;22;20178;-73
2021/04/30 18:02:00;;;;;;;12.80;6.13;;;;;;;;;;12920065;22;20174;-74
2021/04/30 18:07:05;;;;;;;12.97;6.33;;;;;;;;;;12936220;22;20542;-74
2021/04/30 18:12:08;;;;;;;11.70;6.20;;;;;;;;;;12945116;22;20555;-73
2021/04/30 18:17:11;;;;;;;11.97;6.07;;;;;;;;;;12916017;22;20205;-74
2021/04/30 18:22:14;;;;;;;17.27;7.77;;;;;;;;;;12919915;22;20179;-74
2021/04/30 18:27:16;;;;;;;11.93;5.83;;;;;;;;;;12919861;22;20207;-73
2021/04/30 18:32:18;;;;;;;13.77;6.00;;;;;;;;;;12914154;22;20549;-74
2021/04/30 18:37:21;;;;;;;14.10;5.83;;;;;;;;;;12922392;22;20209;-74
2021/04/30 18:42:23;;;;;;;12.13;5.60;;;;;;;;;;12917568;22;20185;-74
2021/04/30 18:47:26;;;;;;;18.40;5.90;;;;;;;;;;12917428;22;20206;-73
2021/04/30 18:52:29;;;;;;;10.20;4.93;;;;;;;;;;12928073;22;20178;-75
2021/04/30 18:57:31;;;;;;;11.03;5.17;;;;;;;;;;12926113;22;20205;-74
2021/04/30 19:02:33;;;;;;;11.13;4.73;;;;;;;;;;12921319;22;20174;-75
2021/04/30 19:07:36;;;;;;;8.87;4.70;;;;;;;;;;12928394;22;20220;-75
2021/04/30 19:12:38;;;;;;;15.90;5.50;;;;;;;;;;12928193;22;20254;-74
2021/04/30 19:17:41;;;;;;;8.27;5.60;;;;;;;;;;12922665;22;20199;-75
2021/04/30 19:22:44;;;;;;;10.60;5.63;;;;;;;;;;12928527;22;20215;-73
2021/04/30 19:27:51;;;;;;;14.70;7.17;;;;;;;;;;12947305;22;20411;-75
2021/04/30 19:32:55;;;;;;;12.07;6.60;;;;;;;;;;12946652;22;20206;-73
2021/04/30 19:37:59;;;;;;;13.50;6.57;;;;;;;;;;12924923;22;20321;-73
2021/04/30 19:43:01;;;;;;;11.67;6.30;;;;;;;;;;12923516;22;20174;-77
2021/04/30 19:48:03;;;;;;;13.93;6.67;;;;;;;;;;12920133;22;20690;-74
2021/04/30 19:53:06;;;;;;;12.67;6.23;;;;;;;;;;12928156;22;20175;-74
2021/04/30 19:58:08;;;;;;;8.87;5.33;;;;;;;;;;12924383;22;20178;-74
2021/04/30 20:03:10;;;;;;;14.73;5.93;;;;;;;;;;12944424;22;20182;-74
2021/04/30 20:08:13;;;;;;;11.07;6.07;;;;;;;;;;12925480;22;20212;-73
2021/04/30 20:13:15;;;;;;;10.80;5.60;;;;;;;;;;12927884;22;20179;-74
2021/04/30 20:18:17;;;;;;;10.97;5.77;;;;;;;;;;12915377;22;20447;-74
2021/04/30 20:23:20;;;;;;;12.77;6.03;;;;;;;;;;12919524;22;20178;-74
2021/04/30 20:28:22;;;;;;;16.47;6.53;;;;;;;;;;12937344;22;20202;-74
2021/04/30 20:33:25;;;;;;;14.63;6.13;;;;;;;;;;12916796;22;20177;-74
2021/04/30 20:38:31;;;;;;;9.73;6.77;;;;;;;;;;12920498;22;20590;-74
2021/04/30 20:43:33;;;;;;;12.63;6.40;;;;;;;;;;12920434;22;20489;-74
2021/04/30 20:48:35;;;;;;;16.10;7.00;;;;;;;;;;12914868;22;20213;-73
2021/04/30 20:53:38;;;;;;;10.77;6.90;;;;;;;;;;12920820;22;20182;-74
2021/04/30 20:58:40;;;;;;;9.27;6.60;;;;;;;;;;12918156;22;20516;-74
2021/04/30 21:03:42;;;;;;;14.90;7.00;;;;;;;;;;12913055;22;20174;-73
2021/04/30 21:08:45;;;;;;;12.90;6.57;;;;;;;;;;12919051;22;20249;-74
2021/04/30 21:19:06;;;;;;;11.00;6.73;;;;;;;;;;12937745;22;20196;-73
2021/04/30 21:24:09;;;;;;;12.23;6.70;;;;;;;;;;12922704;22;20183;-74
2021/04/30 21:29:12;;;;;;;10.80;6.13;;;;;;;;;;12924725;22;20211;-74
2021/04/30 21:34:14;;;;;;;21.00;7.30;;;;;;;;;;12943618;22;20170;-73
2021/04/30 21:39:18;;;;;;;14.83;6.50;;;;;;;;;;12924790;22;20596;-74
2021/04/30 21:44:22;;;;;;;13.10;6.37;;;;;;;;;;12921952;22;20596;-74
2021/04/30 21:49:25;;;;;;;16.43;8.93;;;;;;;;;;12941337;22;20213;-74
2021/04/30 21:54:28;;;;;;;17.27;7.70;;;;;;;;;;12923767;22;20649;-74
2021/04/30 21:59:31;;;;;;;13.23;5.83;;;;;;;;;;12919473;22;20174;-74
2021/04/30 22:04:36;;;;;;;12.13;5.63;;;;;;;;;;12924863;22;20541;-73
2021/04/30 22:09:40;;;;;;;14.23;5.93;;;;;;;;;;12921765;22;20540;-74
2021/04/30 22:14:44;;;;;;;13.00;5.40;;;;;;;;;;12921410;22;20198;-73
2021/04/30 22:19:47;;;;;;;11.30;5.00;;;;;;;;;;12925097;22;20505;-73
2021/04/30 22:24:50;;;;;;;10.50;5.17;;;;;;;;;;12925012;22;20189;-73
2021/04/30 22:29:53;;;;;;;12.47;5.57;;;;;;;;;;12920336;22;20344;-74
2021/04/30 22:34:55;;;;;;;14.23;5.50;;;;;;;;;;12925904;22;20239;-73
2021/04/30 22:39:58;;;;;;;16.47;5.70;;;;;;;;;;12923646;22;20191;-73
2021/04/30 22:45:00;;;;;;;10.63;5.27;;;;;;;;;;12918655;22;20192;-74
2021/04/30 22:50:02;;;;;;;11.97;5.10;;;;;;;;;;12924856;22;20515;-74
2021/04/30 22:55:05;;;;;;;12.33;5.30;;;;;;;;;;12924867;22;20490;-74
2021/04/30 23:00:08;;;;;;;11.63;5.43;;;;;;;;;;12917892;22;20620;-73
2021/04/30 23:05:10;;;;;;;12.83;5.33;;;;;;;;;;12925981;22;20170;-73
2021/04/30 23:10:13;;;;;;;12.47;4.77;;;;;;;;;;12922774;22;20209;-74
2021/04/30 23:15:15;;;;;;;11.73;5.20;;;;;;;;;;12920194;22;20551;-74
2021/04/30 23:20:18;;;;;;;9.07;4.90;;;;;;;;;;12946121;22;20182;-73
2021/04/30 23:25:21;;;;;;;8.70;4.47;;;;;;;;;;12924514;22;20179;-73
2021/04/30 23:30:24;;;;;;;13.80;5.20;;;;;;;;;;12919396;22;21062;-75
2021/04/30 23:35:27;;;;;;;10.20;4.60;;;;;;;;;;12924108;22;20706;-73
2021/04/30 23:40:32;;;;;;;9.07;4.50;;;;;;;;;;12924250;22;20193;-73
2021/04/30 23:45:35;;;;;;;12.10;5.30;;;;;;;;;;12939284;22;20233;-73
2021/04/30 23:50:37;;;;;;;15.27;5.10;;;;;;;;;;12923424;22;20691;-72
2021/04/30 23:55:45;;;;;;;13.50;5.20;;;;;;;;;;12939945;22;20245;-75
